Terminal Aerodrome Forecast
Issued by NWS Cleveland, OH

Home | Current Version | Previous Version | Text Only | Print | Product List | Glossary Off
Versions: 1 2 3 4 5 6 7 8 9 10 11 12

000
FTUS41 KCLE 092300
TAFERI
TAF
KERI 092336Z 1000/1024 32006KT P6SM SCT100
     FM100200 VRB03KT P6SM SCT050 BKN100
     FM101300 01005KT P6SM BKN050=

USA.gov is the U.S. government's official web portal to all federal, state and local government web resources and services.